createdAt,value
2016-10-09T00:00:57.890Z,0
2016-10-09T00:01:58.057Z,0
2016-10-09T00:02:58.021Z,0
2016-10-09T00:03:58.055Z,0
2016-10-09T00:04:58.101Z,0
2016-10-09T00:05:58.213Z,0
2016-10-09T00:06:58.325Z,0
2016-10-09T00:07:58.290Z,0
2016-10-09T00:08:58.346Z,0
2016-10-09T00:09:58.385Z,0
2016-10-09T00:10:58.426Z,0
2016-10-09T00:11:58.568Z,0
2016-10-09T00:12:59.122Z,0
2016-10-09T00:13:58.615Z,0
2016-10-09T00:14:58.666Z,0
2016-10-09T00:15:58.716Z,0
2016-10-09T00:16:58.762Z,0
2016-10-09T00:17:58.791Z,0
2016-10-09T00:18:58.864Z,0
2016-10-09T00:19:59.450Z,0
2016-10-09T00:20:58.991Z,0
2016-10-09T00:21:59.072Z,0
2016-10-09T00:22:59.098Z,0
2016-10-09T00:23:59.149Z,0
2016-10-09T00:24:59.210Z,0
2016-10-09T00:25:59.233Z,0
2016-10-09T00:26:59.301Z,0
2016-10-09T00:27:59.457Z,0
2016-10-09T00:28:59.413Z,0
2016-10-09T00:29:59.499Z,0
2016-10-09T00:30:59.502Z,0
2016-10-09T00:31:59.554Z,0
2016-10-09T00:32:59.724Z,0
2016-10-09T00:33:59.677Z,0
2016-10-09T00:34:59.726Z,0
2016-10-09T00:35:59.839Z,0
2016-10-09T00:36:59.904Z,0
2016-10-09T00:37:59.991Z,0
2016-10-09T00:38:59.934Z,0
2016-10-09T00:39:59.968Z,0
2016-10-09T00:41:00.056Z,0
2016-10-09T00:42:00.114Z,0
2016-10-09T00:43:00.276Z,0
2016-10-09T00:44:00.208Z,0
2016-10-09T00:45:00.308Z,0
2016-10-09T00:46:00.290Z,0
2016-10-09T00:47:00.425Z,0
2016-10-09T00:48:01.101Z,0
2016-10-09T00:49:00.472Z,0
2016-10-09T00:50:00.565Z,0
2016-10-09T00:51:00.575Z,0
2016-10-09T00:52:00.655Z,0
2016-10-09T00:53:00.673Z,0
2016-10-09T00:54:00.767Z,0
2016-10-09T00:55:00.807Z,0
2016-10-09T00:56:00.870Z,0
2016-10-09T00:57:00.945Z,0
2016-10-09T00:58:00.958Z,0
2016-10-09T00:59:01.023Z,0
2016-10-09T01:00:01.627Z,0
2016-10-09T01:01:01.140Z,0
2016-10-09T01:02:01.174Z,0
2016-10-09T01:03:01.209Z,0
2016-10-09T01:04:01.391Z,0
2016-10-09T01:05:01.338Z,0
2016-10-09T01:06:01.466Z,0
2016-10-09T01:07:01.467Z,0
2016-10-09T01:08:02.039Z,0
2016-10-09T01:09:01.652Z,0
2016-10-09T01:10:01.604Z,0
2016-10-09T01:11:01.671Z,0
2016-10-09T01:12:01.740Z,0
2016-10-09T01:13:01.784Z,0
2016-10-09T01:14:01.929Z,0
2016-10-09T01:15:01.888Z,0
2016-10-09T01:16:01.991Z,0
2016-10-09T01:17:01.994Z,0
2016-10-09T01:18:02.080Z,0
2016-10-09T01:19:02.188Z,0
2016-10-09T01:20:02.129Z,0
2016-10-09T01:21:02.751Z,0
2016-10-09T01:22:02.263Z,0
2016-10-09T01:23:02.341Z,0
2016-10-09T01:24:02.328Z,0
2016-10-09T01:25:02.430Z,0
2016-10-09T01:26:02.438Z,0
2016-10-09T01:27:02.503Z,0
2016-10-09T01:28:02.563Z,0
2016-10-09T01:29:02.611Z,0
2016-10-09T01:30:02.759Z,0
2016-10-09T01:31:02.746Z,0
2016-10-09T01:32:02.823Z,0
2016-10-09T01:33:02.824Z,0
2016-10-09T01:34:02.991Z,0
2016-10-09T01:35:03.044Z,0
2016-10-09T01:36:02.964Z,0
2016-10-09T01:37:03.063Z,0
2016-10-09T01:38:03.091Z,0
2016-10-09T01:39:03.146Z,0
2016-10-09T01:40:03.296Z,0
2016-10-09T01:41:03.300Z,0
2016-10-09T01:42:03.312Z,0
2016-10-09T01:43:03.341Z,0
2016-10-09T01:44:03.458Z,0
2016-10-09T01:45:03.642Z,0
2016-10-09T01:46:03.559Z,0
2016-10-09T01:47:03.613Z,0
2016-10-09T01:48:03.629Z,0
2016-10-09T01:49:03.688Z,0
2016-10-09T01:50:03.841Z,0
2016-10-09T01:51:03.808Z,0
2016-10-09T01:52:03.814Z,0
2016-10-09T01:53:03.910Z,0
2016-10-09T01:54:03.977Z,0
2016-10-09T01:55:04.030Z,0
2016-10-09T01:56:04.079Z,0
2016-10-09T01:57:04.122Z,0
2016-10-09T01:58:04.164Z,0
2016-10-09T01:59:04.260Z,0
2016-10-09T02:00:04.744Z,0
2016-10-09T02:01:04.309Z,0
2016-10-09T02:02:04.386Z,0
2016-10-09T02:03:04.446Z,0
2016-10-09T02:04:04.464Z,0
2016-10-09T02:05:04.560Z,0
2016-10-09T02:06:04.685Z,0
2016-10-09T02:07:04.658Z,0
2016-10-09T02:08:04.734Z,0
2016-10-09T02:09:04.746Z,0
2016-10-09T02:10:05.372Z,0
2016-10-09T02:11:04.958Z,0
2016-10-09T02:12:04.983Z,0
2016-10-09T02:13:05.505Z,0
2016-10-09T02:14:05.052Z,0
2016-10-09T02:15:05.141Z,0
2016-10-09T02:16:05.210Z,0
2016-10-09T02:17:05.166Z,0
2016-10-09T02:18:05.229Z,0
2016-10-09T02:19:05.259Z,0
2016-10-09T02:20:05.339Z,0
2016-10-09T02:21:05.504Z,0
2016-10-09T02:22:05.422Z,0
2016-10-09T02:23:05.498Z,0
2016-10-09T02:24:06.113Z,0
2016-10-09T02:25:05.573Z,0
2016-10-09T02:26:06.329Z,0
2016-10-09T02:27:05.736Z,0
2016-10-09T02:28:05.765Z,0
2016-10-09T02:29:05.810Z,0
2016-10-09T02:30:05.836Z,0
2016-10-09T02:31:05.941Z,0
2016-10-09T02:32:05.984Z,0
2016-10-09T02:33:05.972Z,0
2016-10-09T02:34:06.101Z,0
2016-10-09T02:35:06.122Z,0
2016-10-09T02:36:06.165Z,0
2016-10-09T02:37:06.329Z,0
2016-10-09T02:38:06.274Z,0
2016-10-09T02:39:06.329Z,0
2016-10-09T02:40:06.376Z,0
2016-10-09T02:41:06.441Z,0
2016-10-09T02:42:06.608Z,0
2016-10-09T02:43:06.585Z,0
2016-10-09T02:44:07.147Z,0
2016-10-09T02:45:06.650Z,0
2016-10-09T02:46:06.742Z,0
2016-10-09T02:47:06.860Z,0
2016-10-09T02:48:06.777Z,0
2016-10-09T02:49:06.865Z,0
2016-10-09T02:50:06.890Z,0
2016-10-09T02:51:07.002Z,0
2016-10-09T02:52:07.123Z,0
2016-10-09T02:53:07.615Z,0
2016-10-09T02:54:07.148Z,0
2016-10-09T02:55:07.174Z,0
2016-10-09T02:56:07.259Z,0
2016-10-09T02:57:07.367Z,0
2016-10-09T02:58:07.344Z,0
2016-10-09T02:59:07.377Z,0
2016-10-09T03:00:07.425Z,0
2016-10-09T03:01:07.491Z,0
2016-10-09T03:02:07.664Z,0
2016-10-09T03:03:07.636Z,0
2016-10-09T03:04:07.656Z,0
2016-10-09T03:05:07.695Z,0
2016-10-09T03:06:08.283Z,0
2016-10-09T03:07:07.819Z,0
2016-10-09T03:08:07.884Z,0
2016-10-09T03:09:07.906Z,0
2016-10-09T03:10:07.972Z,0
2016-10-09T03:11:08.031Z,0
2016-10-09T03:12:08.583Z,0
2016-10-09T03:13:08.192Z,0
2016-10-09T03:14:08.168Z,0
2016-10-09T03:15:08.216Z,0
2016-10-09T03:16:08.286Z,0
2016-10-09T03:17:08.866Z,0
2016-10-09T03:18:08.494Z,0
2016-10-09T03:19:08.968Z,0
2016-10-09T03:20:08.485Z,0
2016-10-09T03:21:08.535Z,0
2016-10-09T03:22:08.642Z,0
2016-10-09T03:23:08.779Z,0
2016-10-09T03:24:08.725Z,0
2016-10-09T03:25:08.764Z,0
2016-10-09T03:26:08.779Z,0
2016-10-09T03:27:08.895Z,0
2016-10-09T03:28:09.019Z,0
2016-10-09T03:29:08.947Z,0
2016-10-09T03:30:09.014Z,0
2016-10-09T03:31:09.623Z,0
2016-10-09T03:32:09.104Z,0
2016-10-09T03:33:09.314Z,0
2016-10-09T03:34:09.276Z,0
2016-10-09T03:35:09.302Z,0
2016-10-09T03:36:09.326Z,0
2016-10-09T03:37:09.920Z,0
2016-10-09T03:38:09.593Z,0
2016-10-09T03:39:09.508Z,0
2016-10-09T03:40:09.541Z,0
2016-10-09T03:41:10.171Z,0
2016-10-09T03:42:10.178Z,0
2016-10-09T03:43:10.309Z,0
2016-10-09T03:44:09.813Z,0
2016-10-09T03:45:09.871Z,0
2016-10-09T03:46:09.856Z,0
2016-10-09T03:47:09.929Z,0
2016-10-09T03:48:09.959Z,0
2016-10-09T03:49:10.618Z,0
2016-10-09T03:50:10.600Z,0
2016-10-09T03:51:10.171Z,0
2016-10-09T03:52:10.205Z,0
2016-10-09T03:53:10.250Z,0
2016-10-09T03:54:10.396Z,0
2016-10-09T03:55:10.357Z,0
2016-10-09T03:56:10.428Z,0
2016-10-09T03:57:10.459Z,0
2016-10-09T03:58:10.476Z,0
2016-10-09T03:59:10.662Z,0
2016-10-09T04:00:11.142Z,0
2016-10-09T04:01:10.666Z,0
2016-10-09T04:02:10.717Z,0
2016-10-09T04:03:10.768Z,0
2016-10-09T04:04:11.510Z,0
2016-10-09T04:05:10.886Z,0
2016-10-09T04:06:10.965Z,0
2016-10-09T04:07:10.959Z,0
2016-10-09T04:08:11.040Z,0
2016-10-09T04:09:11.163Z,0
2016-10-09T04:10:11.671Z,0
2016-10-09T04:11:11.187Z,0
2016-10-09T04:12:11.287Z,0
2016-10-09T04:13:11.310Z,0
2016-10-09T04:14:11.487Z,0
2016-10-09T04:15:11.384Z,0
2016-10-09T04:16:11.404Z,0
2016-10-09T04:17:11.492Z,0
2016-10-09T04:18:11.555Z,0
2016-10-09T04:19:11.616Z,0
2016-10-09T04:20:11.654Z,0
2016-10-09T04:21:11.722Z,0
2016-10-09T04:22:11.809Z,0
2016-10-09T04:23:11.832Z,0
2016-10-09T04:24:12.914Z,0
2016-10-09T04:25:11.912Z,0
2016-10-09T04:26:11.972Z,0
2016-10-09T04:27:12.018Z,0
2016-10-09T04:28:12.104Z,0
2016-10-09T04:29:12.166Z,0
2016-10-09T04:30:12.335Z,0
2016-10-09T04:31:12.251Z,0
2016-10-09T04:32:12.316Z,0
2016-10-09T04:33:12.369Z,0
2016-10-09T04:34:12.385Z,0
2016-10-09T04:35:12.522Z,0
2016-10-09T04:36:12.535Z,0
2016-10-09T04:37:12.558Z,0
2016-10-09T04:38:12.585Z,0
2016-10-09T04:39:12.680Z,0
2016-10-09T04:40:13.280Z,0
2016-10-09T04:41:12.785Z,0
2016-10-09T04:42:13.399Z,0
2016-10-09T04:43:12.914Z,0
2016-10-09T04:44:12.933Z,0
2016-10-09T04:45:13.583Z,0
2016-10-09T04:46:13.017Z,0
2016-10-09T04:47:13.080Z,0
2016-10-09T04:48:13.103Z,0
2016-10-09T04:49:13.158Z,0
2016-10-09T04:50:13.841Z,0
2016-10-09T04:51:13.308Z,0
2016-10-09T04:52:13.347Z,0
2016-10-09T04:53:13.409Z,0
2016-10-09T04:54:13.429Z,0
2016-10-09T04:55:13.501Z,0
2016-10-09T04:56:13.528Z,0
2016-10-09T04:57:14.165Z,0
2016-10-09T04:58:13.651Z,0
2016-10-09T04:59:13.719Z,0
2016-10-09T05:00:13.775Z,0
2016-10-09T05:01:13.783Z,0
2016-10-09T05:02:13.887Z,0
2016-10-09T05:03:13.922Z,0
2016-10-09T05:04:14.030Z,0
2016-10-09T05:05:14.004Z,0
2016-10-09T05:06:14.193Z,0
2016-10-09T05:07:14.091Z,0
2016-10-09T05:08:14.148Z,0
2016-10-09T05:09:14.257Z,0
2016-10-09T05:10:14.248Z,0
2016-10-09T05:11:14.411Z,0
2016-10-09T05:12:14.411Z,0
2016-10-09T05:13:14.458Z,0
2016-10-09T05:14:14.469Z,0
2016-10-09T05:15:14.552Z,0
2016-10-09T05:16:14.681Z,0
2016-10-09T05:17:14.621Z,0
2016-10-09T05:18:14.694Z,0
2016-10-09T05:19:14.762Z,0
2016-10-09T05:20:14.807Z,0
2016-10-09T05:21:14.927Z,0
2016-10-09T05:22:14.884Z,0
2016-10-09T05:23:14.947Z,0
2016-10-09T05:24:15.045Z,0
2016-10-09T05:25:15.104Z,0
2016-10-09T05:26:15.314Z,0
2016-10-09T05:27:15.178Z,0
2016-10-09T05:28:15.231Z,0
2016-10-09T05:29:15.309Z,0
2016-10-09T05:30:15.342Z,0
2016-10-09T05:31:15.369Z,0
2016-10-09T05:32:15.455Z,0
2016-10-09T05:33:15.485Z,0
2016-10-09T05:34:15.544Z,0
2016-10-09T05:35:15.584Z,0
2016-10-09T05:36:15.608Z,0
2016-10-09T05:37:15.828Z,0
2016-10-09T05:38:15.730Z,0
2016-10-09T05:39:15.823Z,0
2016-10-09T05:40:15.832Z,0
2016-10-09T05:41:15.883Z,0
2016-10-09T05:42:16.063Z,0
2016-10-09T05:43:15.993Z,0
2016-10-09T05:44:16.080Z,0
2016-10-09T05:45:16.148Z,0
2016-10-09T05:46:16.168Z,0
2016-10-09T05:47:16.352Z,0
2016-10-09T05:48:16.259Z,0
2016-10-09T05:49:16.315Z,0
2016-10-09T05:50:16.398Z,0
2016-10-09T05:51:16.443Z,0
2016-10-09T05:52:16.588Z,0
2016-10-09T05:53:16.538Z,0
2016-10-09T05:54:16.598Z,0
2016-10-09T05:55:16.618Z,0
2016-10-09T05:56:16.712Z,0
2016-10-09T05:57:16.857Z,0
2016-10-09T05:58:16.791Z,0
2016-10-09T05:59:17.397Z,0
2016-10-09T06:00:16.905Z,0
2016-10-09T06:01:16.936Z,0
2016-10-09T06:02:17.015Z,0
2016-10-09T06:03:17.074Z,0
2016-10-09T06:04:17.647Z,0
2016-10-09T06:05:17.164Z,0
2016-10-09T06:06:17.238Z,0
2016-10-09T06:07:17.261Z,0
2016-10-09T06:08:17.423Z,0
2016-10-09T06:09:17.383Z,0
2016-10-09T06:10:17.420Z,0
2016-10-09T06:11:17.476Z,0
2016-10-09T06:12:17.510Z,0
2016-10-09T06:13:17.666Z,0
2016-10-09T06:14:17.643Z,0
2016-10-09T06:15:17.693Z,0
2016-10-09T06:16:17.714Z,0
2016-10-09T06:17:17.776Z,0
2016-10-09T06:18:17.934Z,0
2016-10-09T06:19:17.935Z,0
2016-10-09T06:20:17.967Z,0
2016-10-09T06:21:17.974Z,0
2016-10-09T06:22:18.037Z,0
2016-10-09T06:23:18.210Z,0
2016-10-09T06:24:18.727Z,0
2016-10-09T06:25:18.228Z,0
2016-10-09T06:26:18.277Z,0
2016-10-09T06:27:18.289Z,0
2016-10-09T06:28:18.447Z,0
2016-10-09T06:29:18.438Z,0
2016-10-09T06:30:19.474Z,0
2016-10-09T06:31:18.520Z,0
2016-10-09T06:32:18.557Z,0
2016-10-09T06:33:18.580Z,0
2016-10-09T06:34:18.700Z,0
2016-10-09T06:35:18.753Z,0
2016-10-09T06:36:18.759Z,0
2016-10-09T06:37:19.907Z,0
2016-10-09T06:38:18.895Z,0
2016-10-09T06:39:50.429Z,0
2016-10-09T06:40:19.014Z,0
2016-10-09T06:41:19.014Z,0
2016-10-09T06:42:19.036Z,0
2016-10-09T06:43:19.137Z,0
2016-10-09T06:44:19.152Z,0
2016-10-09T06:45:19.739Z,0
2016-10-09T06:46:19.305Z,0
2016-10-09T06:47:19.378Z,0
2016-10-09T06:48:19.937Z,0
2016-10-09T06:49:19.492Z,0
2016-10-09T06:50:19.521Z,0
2016-10-09T06:51:19.564Z,0
2016-10-09T06:52:20.141Z,0
2016-10-09T06:53:19.663Z,0
2016-10-09T06:54:19.757Z,0
2016-10-09T06:55:19.787Z,0
2016-10-09T06:56:19.791Z,0
2016-10-09T06:57:19.860Z,0
2016-10-09T06:58:20.481Z,0
2016-10-09T06:59:19.987Z,0
2016-10-09T07:00:20.023Z,0
2016-10-09T07:01:20.140Z,0
2016-10-09T07:02:20.120Z,0
2016-10-09T07:03:20.191Z,0
2016-10-09T07:04:20.724Z,0
2016-10-09T07:05:20.325Z,0
2016-10-09T07:06:20.901Z,0
2016-10-09T07:07:20.404Z,0
2016-10-09T07:08:20.420Z,0
2016-10-09T07:09:20.506Z,0
2016-10-09T07:10:20.557Z,0
2016-10-09T07:11:21.141Z,0
2016-10-09T07:12:20.662Z,0
2016-10-09T07:13:20.688Z,0
2016-10-09T07:14:20.783Z,0
2016-10-09T07:15:20.799Z,0
2016-10-09T07:16:20.868Z,0
2016-10-09T07:17:20.905Z,0
2016-10-09T07:18:20.989Z,0
2016-10-09T07:19:20.979Z,0
2016-10-09T07:20:21.018Z,0
2016-10-09T07:21:21.093Z,0
2016-10-09T07:22:21.165Z,0
2016-10-09T07:23:21.216Z,0
2016-10-09T07:24:21.263Z,0
2016-10-09T07:25:21.302Z,0
2016-10-09T07:26:21.358Z,0
2016-10-09T07:27:21.408Z,0
2016-10-09T07:28:21.535Z,0
2016-10-09T07:29:21.604Z,0
2016-10-09T07:30:21.598Z,0
2016-10-09T07:31:21.671Z,0
2016-10-09T07:32:22.243Z,0
2016-10-09T07:33:21.763Z,0
2016-10-09T07:34:21.810Z,0
2016-10-09T07:35:21.828Z,0
2016-10-09T07:36:21.912Z,0
2016-10-09T07:37:21.940Z,0
2016-10-09T07:38:21.999Z,0
2016-10-09T07:39:22.586Z,0
2016-10-09T07:40:22.116Z,0
2016-10-09T07:41:22.120Z,0
2016-10-09T07:42:22.251Z,0
2016-10-09T07:43:22.255Z,0
2016-10-09T07:44:22.300Z,0
2016-10-09T07:45:22.353Z,0
2016-10-09T07:46:22.458Z,0
2016-10-09T07:47:22.461Z,0
2016-10-09T07:48:22.501Z,0
2016-10-09T07:49:22.547Z,0
2016-10-09T07:50:23.380Z,0
2016-10-09T07:51:22.703Z,0
2016-10-09T07:52:22.689Z,0
2016-10-09T07:53:22.771Z,0
2016-10-09T07:54:22.848Z,0
2016-10-09T07:55:22.904Z,0
2016-10-09T07:56:22.938Z,0
2016-10-09T07:57:23.000Z,0
2016-10-09T07:58:23.035Z,0
2016-10-09T07:59:23.058Z,0
2016-10-09T08:00:23.171Z,0
2016-10-09T08:01:23.223Z,0
2016-10-09T08:02:23.235Z,0
2016-10-09T08:03:23.373Z,0
2016-10-09T08:04:23.339Z,0
2016-10-09T08:05:23.420Z,0
2016-10-09T08:06:23.454Z,0
2016-10-09T08:07:23.485Z,0
2016-10-09T08:08:23.548Z,0
2016-10-09T08:09:24.098Z,0
2016-10-09T08:10:23.697Z,0
2016-10-09T08:11:23.696Z,0
2016-10-09T08:12:23.749Z,0
2016-10-09T08:13:23.808Z,4
2016-10-09T08:14:23.831Z,0
2016-10-09T08:15:24.415Z,4
2016-10-09T08:16:23.942Z,4
2016-10-09T08:17:24.019Z,4
2016-10-09T08:18:24.064Z,8
2016-10-09T08:19:24.670Z,8
2016-10-09T08:20:24.172Z,12
2016-10-09T08:21:24.252Z,12
2016-10-09T08:22:24.301Z,20
2016-10-09T08:23:24.324Z,20
2016-10-09T08:24:24.351Z,28
2016-10-09T08:25:24.417Z,36
2016-10-09T08:26:24.514Z,40
2016-10-09T08:27:24.551Z,52
2016-10-09T08:28:24.584Z,60
2016-10-09T08:29:24.659Z,72
2016-10-09T08:30:24.656Z,84
2016-10-09T08:31:25.268Z,100
2016-10-09T08:32:24.810Z,116
2016-10-09T08:33:24.863Z,136
2016-10-09T08:34:24.863Z,152
2016-10-09T08:35:24.931Z,180
2016-10-09T08:36:25.004Z,204
2016-10-09T08:37:25.035Z,224
2016-10-09T08:38:25.598Z,256
2016-10-09T08:39:25.147Z,288
2016-10-09T08:40:25.204Z,320
2016-10-09T08:41:25.205Z,356
2016-10-09T08:42:25.290Z,404
2016-10-09T08:43:25.368Z,448
2016-10-09T08:44:25.421Z,500
2016-10-09T08:45:25.487Z,548
2016-10-09T08:46:25.524Z,608
2016-10-09T08:47:25.579Z,668
2016-10-09T08:48:25.606Z,732
2016-10-09T08:49:25.638Z,800
2016-10-09T08:50:25.729Z,868
2016-10-09T08:51:25.726Z,944
2016-10-09T08:52:25.804Z,1008
2016-10-09T08:53:25.880Z,1076
2016-10-09T08:54:25.879Z,1120
2016-10-09T08:55:25.972Z,1200
2016-10-09T08:56:26.014Z,1300
2016-10-09T08:57:26.575Z,1332
2016-10-09T08:58:26.110Z,1288
2016-10-09T08:59:26.157Z,1108
2016-10-09T09:00:26.246Z,936
2016-10-09T09:01:26.245Z,864
2016-10-09T09:02:26.335Z,764
2016-10-09T09:03:26.377Z,696
2016-10-09T09:04:26.507Z,704
2016-10-09T09:05:26.450Z,652
2016-10-09T09:06:26.543Z,612
2016-10-09T09:07:26.578Z,572
2016-10-09T09:08:26.658Z,524
2016-10-09T09:09:26.678Z,492
2016-10-09T09:10:26.729Z,480
2016-10-09T09:11:26.805Z,484
2016-10-09T09:12:26.850Z,480
2016-10-09T09:13:27.426Z,476
2016-10-09T09:14:26.967Z,476
2016-10-09T09:15:27.003Z,448
2016-10-09T09:16:27.070Z,424
2016-10-09T09:17:27.062Z,416
2016-10-09T09:18:27.155Z,420
2016-10-09T09:19:27.185Z,432
2016-10-09T09:20:27.239Z,420
2016-10-09T09:21:27.294Z,400
2016-10-09T09:22:27.335Z,404
2016-10-09T09:23:27.419Z,388
2016-10-09T09:24:27.450Z,380
2016-10-09T09:25:27.508Z,376
2016-10-09T09:26:27.555Z,396
2016-10-09T09:27:27.619Z,420
2016-10-09T09:28:27.683Z,476
2016-10-09T09:29:27.690Z,568
2016-10-09T09:30:28.332Z,660
2016-10-09T09:31:27.820Z,700
2016-10-09T09:32:27.869Z,668
2016-10-09T09:33:27.896Z,688
2016-10-09T09:34:27.954Z,720
2016-10-09T09:35:28.024Z,844
2016-10-09T09:36:28.021Z,1036
2016-10-09T09:37:28.658Z,1208
2016-10-09T09:38:28.196Z,1520
2016-10-09T09:39:28.240Z,2436
2016-10-09T09:40:28.289Z,4136
2016-10-09T09:41:28.295Z,4360
2016-10-09T09:42:28.400Z,4436
2016-10-09T09:43:28.434Z,35072
2016-10-09T09:44:28.520Z,15840
2016-10-09T09:45:28.532Z,21600
2016-10-09T09:46:28.623Z,11548
2016-10-09T09:47:28.624Z,9212
2016-10-09T09:48:28.682Z,6248
2016-10-09T09:49:28.769Z,13904
2016-10-09T09:50:28.794Z,6172
2016-10-09T09:51:28.833Z,3128
2016-10-09T09:52:28.917Z,2552
2016-10-09T09:53:29.995Z,2928
2016-10-09T09:54:29.011Z,3896
2016-10-09T09:55:29.049Z,4260
2016-10-09T09:56:29.149Z,5768
2016-10-09T09:57:29.097Z,6040
2016-10-09T09:58:29.190Z,4940
2016-10-09T09:59:29.270Z,5260
2016-10-09T10:00:29.324Z,10152
2016-10-09T10:01:29.335Z,27008
2016-10-09T10:02:29.423Z,74720
2016-10-09T10:03:29.455Z,45920
2016-10-09T10:04:29.575Z,25248
2016-10-09T10:05:29.534Z,34432
2016-10-09T10:06:29.593Z,66272
2016-10-09T10:07:29.674Z,74144
2016-10-09T10:08:29.749Z,73568
2016-10-09T10:09:29.787Z,24736
2016-10-09T10:10:29.847Z,71488
2016-10-09T10:11:29.945Z,16540
2016-10-09T10:12:29.962Z,72224
2016-10-09T10:13:29.991Z,78912
2016-10-09T10:14:30.107Z,36992
2016-10-09T10:15:30.130Z,74048
2016-10-09T10:16:30.690Z,75936
2016-10-09T10:17:30.249Z,75296
2016-10-09T10:18:30.300Z,77984
2016-10-09T10:19:30.358Z,77888
2016-10-09T10:20:30.418Z,49984
2016-10-09T10:21:30.458Z,17824
2016-10-09T10:22:30.536Z,16352
2016-10-09T10:23:30.597Z,16992
2016-10-09T10:24:30.646Z,14444
2016-10-09T10:25:30.720Z,14376
2016-10-09T10:26:30.752Z,14748
2016-10-09T10:27:30.809Z,16896
2016-10-09T10:28:31.399Z,17472
2016-10-09T10:29:30.943Z,10028
2016-10-09T10:30:30.965Z,12416
2016-10-09T10:31:31.058Z,13036
2016-10-09T10:32:31.102Z,19136
2016-10-09T10:33:31.160Z,18240
2016-10-09T10:34:31.168Z,17568
2016-10-09T10:35:31.276Z,17152
2016-10-09T10:36:31.336Z,15404
2016-10-09T10:37:31.397Z,15152
2016-10-09T10:38:31.461Z,13340
2016-10-09T10:39:31.494Z,13276
2016-10-09T10:40:31.568Z,12256
2016-10-09T10:41:31.665Z,11620
2016-10-09T10:42:31.705Z,11328
2016-10-09T10:43:31.727Z,11352
2016-10-09T10:44:31.790Z,10820
2016-10-09T10:45:32.021Z,11272
2016-10-09T10:46:31.881Z,10872
2016-10-09T10:47:31.934Z,11224
2016-10-09T10:48:31.982Z,10304
2016-10-09T10:49:32.069Z,11296
2016-10-09T10:50:32.114Z,10956
2016-10-09T10:51:32.648Z,11328
2016-10-09T10:52:32.208Z,10332
2016-10-09T10:53:32.295Z,11304
2016-10-09T10:54:32.325Z,10664
2016-10-09T10:55:32.372Z,11276
2016-10-09T10:56:32.457Z,11708
2016-10-09T10:57:32.501Z,11936
2016-10-09T10:58:32.551Z,11856
2016-10-09T10:59:32.621Z,12544
2016-10-09T11:00:32.639Z,11236
2016-10-09T11:01:32.724Z,11164
2016-10-09T11:02:32.782Z,11668
2016-10-09T11:03:32.821Z,10832
2016-10-09T11:04:32.911Z,10388
2016-10-09T11:05:32.915Z,9728
2016-10-09T11:06:32.974Z,10296
2016-10-09T11:07:33.063Z,10220
2016-10-09T11:08:33.158Z,9856
2016-10-09T11:09:33.155Z,9776
2016-10-09T11:10:33.241Z,9992
2016-10-09T11:11:33.254Z,10376
2016-10-09T11:12:33.322Z,10444
2016-10-09T11:13:33.390Z,8892
2016-10-09T11:14:33.407Z,10612
2016-10-09T11:15:33.477Z,10460
2016-10-09T11:16:33.540Z,10856
2016-10-09T11:17:33.608Z,10256
2016-10-09T11:18:33.634Z,11536
2016-10-09T11:19:33.690Z,11180
2016-10-09T11:20:33.752Z,10188
2016-10-09T11:21:33.828Z,9608
2016-10-09T11:22:33.918Z,11068
2016-10-09T11:23:33.932Z,11244
2016-10-09T11:24:34.008Z,11024
2016-10-09T11:25:33.998Z,10688
2016-10-09T11:26:34.083Z,10452
2016-10-09T11:27:34.139Z,11060
2016-10-09T11:28:34.180Z,11132
2016-10-09T11:29:34.227Z,10520
2016-10-09T11:30:34.295Z,10576
2016-10-09T11:31:34.318Z,11160
2016-10-09T11:32:34.418Z,11156
2016-10-09T11:33:34.439Z,11356
2016-10-09T11:34:34.554Z,11376
2016-10-09T11:35:34.558Z,11312
2016-10-09T11:36:34.603Z,11552
2016-10-09T11:37:34.649Z,10900
2016-10-09T11:38:34.728Z,9716
2016-10-09T11:39:34.790Z,8268
2016-10-09T11:40:34.824Z,8204
2016-10-09T11:41:35.391Z,7504
2016-10-09T11:42:34.932Z,7300
2016-10-09T11:43:34.976Z,7320
2016-10-09T11:44:35.040Z,7244
2016-10-09T11:45:35.103Z,7112
2016-10-09T11:46:35.134Z,7300
2016-10-09T11:47:35.229Z,7256
2016-10-09T11:48:35.276Z,7252
2016-10-09T11:49:35.294Z,7348
2016-10-09T11:50:35.335Z,7128
2016-10-09T11:51:35.425Z,6960
2016-10-09T11:52:35.483Z,7016
2016-10-09T11:53:35.526Z,7064
2016-10-09T11:54:35.638Z,7416
2016-10-09T11:55:35.644Z,7788
2016-10-09T11:56:35.720Z,7996
2016-10-09T11:57:36.211Z,8140
2016-10-09T11:58:35.786Z,7924
2016-10-09T11:59:35.849Z,8420
2016-10-09T12:00:35.918Z,8728
2016-10-09T12:01:35.970Z,9144
2016-10-09T12:02:36.003Z,10676
2016-10-09T12:03:36.056Z,9184
2016-10-09T12:04:36.095Z,9520
2016-10-09T12:05:36.173Z,9788
2016-10-09T12:06:36.255Z,8800
2016-10-09T12:07:36.315Z,8948
2016-10-09T12:08:36.340Z,10252
2016-10-09T12:09:36.405Z,9192
2016-10-09T12:10:36.420Z,8468
2016-10-09T12:11:36.467Z,7652
2016-10-09T12:12:36.547Z,7336
2016-10-09T12:13:36.614Z,9100
2016-10-09T12:14:36.685Z,8500
2016-10-09T12:15:36.770Z,8404
2016-10-09T12:16:36.790Z,8556
2016-10-09T12:17:36.845Z,8104
2016-10-09T12:18:36.871Z,9308
2016-10-09T12:19:36.947Z,8828
2016-10-09T12:20:36.947Z,8680
2016-10-09T12:21:37.548Z,8764
2016-10-09T12:22:37.119Z,10132
2016-10-09T12:23:37.154Z,8980
2016-10-09T12:24:37.173Z,8524
2016-10-09T12:25:37.246Z,8404
2016-10-09T12:26:37.285Z,8828
2016-10-09T12:27:37.412Z,8704
2016-10-09T12:28:37.396Z,10324
2016-10-09T12:29:37.458Z,9524
2016-10-09T12:30:37.487Z,7976
2016-10-09T12:31:37.572Z,7916
2016-10-09T12:32:37.626Z,7672
2016-10-09T12:33:37.716Z,9768
2016-10-09T12:34:38.280Z,8696
2016-10-09T12:35:37.803Z,10512
2016-10-09T12:36:37.867Z,8760
2016-10-09T12:37:37.872Z,10152
2016-10-09T12:38:37.942Z,9108
2016-10-09T12:39:38.026Z,8164
2016-10-09T12:40:38.046Z,8084
2016-10-09T12:41:38.144Z,8108
2016-10-09T12:42:38.206Z,7236
2016-10-09T12:43:38.234Z,7816
2016-10-09T12:44:38.300Z,7588
2016-10-09T12:45:38.326Z,7476
2016-10-09T12:46:38.388Z,7996
2016-10-09T12:47:38.450Z,9524
2016-10-09T12:48:38.534Z,9772
2016-10-09T12:49:38.562Z,8820
2016-10-09T12:50:38.619Z,7916
2016-10-09T12:51:38.612Z,8168
2016-10-09T12:52:38.735Z,9160
2016-10-09T12:53:38.719Z,8724
2016-10-09T12:54:38.811Z,7308
2016-10-09T12:55:38.895Z,7392
2016-10-09T12:56:38.915Z,9524
2016-10-09T12:57:38.976Z,7436
2016-10-09T12:58:39.029Z,8080
2016-10-09T12:59:39.120Z,6968
2016-10-09T13:00:39.656Z,7356
2016-10-09T13:01:39.694Z,7624
2016-10-09T13:02:39.249Z,7204
2016-10-09T13:03:39.332Z,6908
2016-10-09T13:04:39.388Z,7152
2016-10-09T13:05:39.403Z,7316
2016-10-09T13:06:39.469Z,7512
2016-10-09T13:07:39.524Z,7456
2016-10-09T13:08:39.574Z,7880
2016-10-09T13:09:40.152Z,8396
2016-10-09T13:10:39.706Z,8944
2016-10-09T13:11:40.238Z,7612
2016-10-09T13:12:39.786Z,9524
2016-10-09T13:13:39.841Z,9284
2016-10-09T13:14:40.397Z,7980
2016-10-09T13:15:41.063Z,7996
2016-10-09T13:16:39.999Z,6880
2016-10-09T13:17:40.104Z,8140
2016-10-09T13:18:40.125Z,8432
2016-10-09T13:19:40.206Z,7324
2016-10-09T13:20:40.262Z,8368
2016-10-09T13:21:40.301Z,9536
2016-10-09T13:22:40.865Z,9500
2016-10-09T13:23:40.438Z,9316
2016-10-09T13:24:40.438Z,8616
2016-10-09T13:25:40.514Z,8040
2016-10-09T13:26:40.565Z,9404
2016-10-09T13:27:40.580Z,8072
2016-10-09T13:28:40.661Z,7908
2016-10-09T13:29:40.754Z,8408
2016-10-09T13:30:40.754Z,9004
2016-10-09T13:31:40.880Z,7576
2016-10-09T13:32:40.902Z,7324
2016-10-09T13:33:40.969Z,7956
2016-10-09T13:34:40.991Z,8928
2016-10-09T13:35:41.069Z,9072
2016-10-09T13:36:41.133Z,7376
2016-10-09T13:37:41.145Z,7096
2016-10-09T13:38:41.234Z,6800
2016-10-09T13:39:41.278Z,6740
2016-10-09T13:40:41.320Z,6616
2016-10-09T13:41:41.402Z,6652
2016-10-09T13:42:41.460Z,7080
2016-10-09T13:43:41.465Z,6204
2016-10-09T13:44:41.585Z,6584
2016-10-09T13:45:41.620Z,6752
2016-10-09T13:46:41.677Z,6936
2016-10-09T13:47:41.723Z,6980
2016-10-09T13:48:41.762Z,7720
2016-10-09T13:49:41.859Z,8324
2016-10-09T13:50:41.849Z,7464
2016-10-09T13:51:41.927Z,7440
2016-10-09T13:52:41.979Z,7804
2016-10-09T13:53:42.057Z,7632
2016-10-09T13:54:42.060Z,7176
2016-10-09T13:55:42.124Z,6988
2016-10-09T13:56:42.719Z,6816
2016-10-09T13:57:42.288Z,7076
2016-10-09T13:58:42.810Z,7460
2016-10-09T13:59:42.346Z,6376
2016-10-09T14:00:42.464Z,6124
2016-10-09T14:01:42.459Z,7780
2016-10-09T14:02:42.550Z,7556
2016-10-09T14:03:42.594Z,6812
2016-10-09T14:04:42.639Z,7284
2016-10-09T14:05:42.697Z,7476
2016-10-09T14:06:42.731Z,7208
2016-10-09T14:07:42.818Z,7112
2016-10-09T14:08:42.847Z,8684